createdAt,value
2022-12-01T00:00:51.922Z,56.09
2022-12-01T00:01:52.062Z,56.29
2022-12-01T00:02:52.069Z,56.55
2022-12-01T00:03:51.903Z,56.45
2022-12-01T00:04:51.951Z,56.34
2022-12-01T00:06:51.955Z,56.41
2022-12-01T00:07:52.026Z,56.15
2022-12-01T00:08:51.961Z,56.41
2022-12-01T00:09:51.970Z,56.75
2022-12-01T00:10:51.910Z,56.75
2022-12-01T00:11:51.955Z,56.84
2022-12-01T00:12:51.948Z,56.89
2022-12-01T00:13:51.947Z,56.56
2022-12-01T00:14:51.966Z,56.46
2022-12-01T00:15:51.911Z,56.77
2022-12-01T00:16:51.973Z,56.21
2022-12-01T00:17:51.996Z,56.38
2022-12-01T00:18:51.979Z,56.43
2022-12-01T00:19:51.997Z,56.38
2022-12-01T00:20:51.939Z,56.13
2022-12-01T00:21:51.984Z,56.29
2022-12-01T00:22:51.987Z,56.67
2022-12-01T00:23:51.984Z,56.67
2022-12-01T00:24:51.964Z,56.71
2022-12-01T00:25:51.970Z,56.71
2022-12-01T00:28:51.997Z,56.39
2022-12-01T00:29:51.965Z,56.22
2022-12-01T00:31:52.087Z,56.94
2022-12-01T00:32:51.999Z,56.93
2022-12-01T00:33:51.960Z,56.82
2022-12-01T00:35:52.062Z,56.96
2022-12-01T00:36:52.018Z,56.96
2022-12-01T00:38:51.985Z,57.00
2022-12-01T00:39:52.054Z,56.92
2022-12-01T00:40:52.043Z,56.82
2022-12-01T00:41:52.023Z,57.04
2022-12-01T00:42:51.986Z,56.95
2022-12-01T00:43:52.050Z,57.11
2022-12-01T00:44:52.043Z,57.11
2022-12-01T00:45:52.140Z,57.15
2022-12-01T00:46:52.053Z,57.04
2022-12-01T00:48:52.010Z,56.87
2022-12-01T00:50:52.071Z,56.96
2022-12-01T00:51:52.048Z,56.96
2022-12-01T00:52:52.056Z,57.04
2022-12-01T00:53:52.055Z,57.16
2022-12-01T00:54:52.065Z,57.16
2022-12-01T00:55:52.065Z,56.94
2022-12-01T00:56:52.050Z,56.99
2022-12-01T00:57:52.079Z,56.89
2022-12-01T00:58:52.012Z,56.89
2022-12-01T00:59:52.033Z,57.18
2022-12-01T01:00:52.124Z,57.18
2022-12-01T01:01:52.091Z,57.18
2022-12-01T01:02:52.110Z,57.17
2022-12-01T01:03:52.043Z,57.04
2022-12-01T01:05:52.132Z,56.87
2022-12-01T01:06:52.069Z,56.87
2022-12-01T01:07:52.110Z,56.94
2022-12-01T01:08:52.092Z,56.84
2022-12-01T01:09:52.271Z,56.66
2022-12-01T01:10:52.096Z,56.46
2022-12-01T01:11:52.056Z,56.46
2022-12-01T01:12:52.092Z,56.47
2022-12-01T01:13:52.106Z,56.25
2022-12-01T01:14:52.052Z,56.25
2022-12-01T01:16:52.137Z,55.73
2022-12-01T01:17:52.125Z,55.95
2022-12-01T01:19:52.114Z,56.62
2022-12-01T01:20:52.148Z,56.51
2022-12-01T01:22:52.132Z,56.63
2022-12-01T01:23:52.127Z,56.52
2022-12-01T01:24:52.086Z,56.55
2022-12-01T01:25:52.091Z,56.43
2022-12-01T01:26:52.088Z,56.21
2022-12-01T01:27:52.120Z,56.05
2022-12-01T01:28:52.134Z,56.16
2022-12-01T01:29:52.100Z,56.16
2022-12-01T01:30:52.173Z,56.39
2022-12-01T01:31:52.109Z,56.39
2022-12-01T01:32:52.097Z,56.56
2022-12-01T01:33:52.181Z,56.76
2022-12-01T01:35:52.101Z,57.33
2022-12-01T01:36:52.131Z,57.00
2022-12-01T01:37:52.150Z,56.87
2022-12-01T01:38:52.203Z,56.83
2022-12-01T01:39:52.163Z,56.83
2022-12-01T01:40:52.132Z,56.80
2022-12-01T01:41:52.160Z,56.56
2022-12-01T01:42:52.162Z,56.56
2022-12-01T01:43:52.163Z,57.66
2022-12-01T01:44:52.186Z,57.66
2022-12-01T01:45:52.268Z,57.56
2022-12-01T01:46:52.172Z,57.24
2022-12-01T01:47:52.184Z,57.24
2022-12-01T01:48:52.208Z,56.99
2022-12-01T01:49:52.175Z,56.99
2022-12-01T01:50:52.221Z,56.87
2022-12-01T01:51:52.225Z,56.87
2022-12-01T01:52:52.163Z,56.80
2022-12-01T01:53:52.209Z,56.30
2022-12-01T01:54:52.201Z,56.40
2022-12-01T01:55:52.173Z,56.40
2022-12-01T01:56:52.210Z,56.65
2022-12-01T01:57:52.176Z,56.65
2022-12-01T01:58:52.227Z,56.67
2022-12-01T01:59:52.233Z,56.44
2022-12-01T02:00:52.249Z,56.53
2022-12-01T02:01:52.195Z,56.45
2022-12-01T02:02:52.306Z,56.32
2022-12-01T02:03:52.233Z,56.13
2022-12-01T02:04:52.233Z,56.13
2022-12-01T02:05:52.225Z,56.51
2022-12-01T02:06:52.231Z,56.85
2022-12-01T02:07:52.462Z,56.91
2022-12-01T02:08:52.221Z,56.91
2022-12-01T02:09:52.274Z,56.62
2022-12-01T02:10:52.250Z,56.46
2022-12-01T02:11:52.209Z,56.46
2022-12-01T02:12:52.247Z,56.43
2022-12-01T02:13:52.246Z,56.38
2022-12-01T02:14:52.239Z,56.17
2022-12-01T02:15:52.247Z,56.20
2022-12-01T02:17:52.244Z,56.73
2022-12-01T02:18:52.222Z,56.81
2022-12-01T02:19:52.234Z,56.67
2022-12-01T02:20:52.228Z,56.64
2022-12-01T02:21:52.233Z,56.65
2022-12-01T02:22:53.765Z,56.43
2022-12-01T02:23:52.257Z,56.43
2022-12-01T02:24:52.222Z,56.31
2022-12-01T02:25:52.308Z,56.18
2022-12-01T02:26:52.251Z,56.18
2022-12-01T02:27:52.264Z,56.14
2022-12-01T02:28:52.283Z,56.14
2022-12-01T02:29:52.283Z,56.16
2022-12-01T02:31:52.268Z,56.19
2022-12-01T02:32:52.315Z,56.11
2022-12-01T02:33:52.303Z,56.11
2022-12-01T02:34:52.283Z,56.37
2022-12-01T02:35:52.283Z,56.27
2022-12-01T02:38:52.298Z,56.50
2022-12-01T02:39:52.325Z,56.45
2022-12-01T02:40:52.302Z,56.52
2022-12-01T02:41:52.272Z,56.58
2022-12-01T02:43:52.322Z,56.76
2022-12-01T02:44:52.311Z,56.69
2022-12-01T02:45:52.374Z,56.67
2022-12-01T02:47:52.309Z,56.85
2022-12-01T02:48:52.295Z,56.78
2022-12-01T02:49:52.473Z,56.96
2022-12-01T02:50:52.321Z,57.02
2022-12-01T02:51:52.296Z,57.09
2022-12-01T02:52:52.290Z,57.25
2022-12-01T02:53:52.294Z,57.33
2022-12-01T02:54:52.305Z,57.36
2022-12-01T02:55:52.366Z,57.21
2022-12-01T02:56:52.308Z,57.21
2022-12-01T02:57:52.340Z,57.18
2022-12-01T02:59:52.368Z,57.03
2022-12-01T03:00:52.384Z,57.05
2022-12-01T03:01:52.450Z,57.03
2022-12-01T03:02:52.392Z,56.98
2022-12-01T03:03:52.388Z,56.90
2022-12-01T03:04:52.323Z,56.78
2022-12-01T03:05:52.408Z,56.70
2022-12-01T03:07:52.435Z,56.75
2022-12-01T03:09:52.364Z,56.59
2022-12-01T03:10:52.459Z,56.59
2022-12-01T03:11:52.365Z,56.61
2022-12-01T03:12:52.339Z,56.30
2022-12-01T03:13:52.410Z,56.56
2022-12-01T03:14:52.344Z,56.56
2022-12-01T03:15:52.477Z,56.66
2022-12-01T03:16:52.375Z,56.86
2022-12-01T03:17:52.365Z,56.86
2022-12-01T03:18:52.431Z,56.96
2022-12-01T03:19:52.368Z,56.90
2022-12-01T03:20:52.395Z,56.47
2022-12-01T03:21:52.349Z,56.47
2022-12-01T03:22:52.412Z,56.40
2022-12-01T03:25:52.451Z,56.68
2022-12-01T03:26:52.427Z,56.73
2022-12-01T03:28:19.687Z,56.73
2022-12-01T03:28:52.451Z,56.75
2022-12-01T03:29:52.408Z,56.81
2022-12-01T03:30:52.512Z,56.82
2022-12-01T03:31:52.416Z,56.92
2022-12-01T03:32:52.415Z,56.94
2022-12-01T03:33:52.466Z,56.82
2022-12-01T03:34:52.442Z,56.84
2022-12-01T03:35:52.468Z,56.77
2022-12-01T03:36:52.448Z,56.80
2022-12-01T03:37:52.401Z,56.69
2022-12-01T03:38:52.466Z,56.35
2022-12-01T03:39:57.205Z,56.35
2022-12-01T03:40:52.440Z,56.39
2022-12-01T03:41:52.414Z,56.56
2022-12-01T03:42:52.412Z,56.56
2022-12-01T03:43:52.493Z,56.94
2022-12-01T03:44:52.457Z,56.94
2022-12-01T03:45:52.564Z,56.74
2022-12-01T03:46:52.428Z,56.79
2022-12-01T03:47:52.461Z,56.88
2022-12-01T03:48:52.495Z,56.71
2022-12-01T03:49:52.457Z,56.71
2022-12-01T03:50:52.473Z,56.76
2022-12-01T03:51:52.488Z,56.89
2022-12-01T03:52:52.494Z,56.82
2022-12-01T03:53:52.492Z,56.67
2022-12-01T03:54:52.454Z,56.67
2022-12-01T03:56:52.500Z,56.32
2022-12-01T03:58:52.519Z,56.13
2022-12-01T03:59:52.495Z,56.13
2022-12-01T04:00:52.461Z,56.51
2022-12-01T04:01:52.552Z,56.68
2022-12-01T04:02:52.507Z,56.78
2022-12-01T04:03:52.491Z,56.76
2022-12-01T04:04:52.465Z,56.88
2022-12-01T04:05:52.528Z,56.68
2022-12-01T04:06:52.535Z,56.68
2022-12-01T04:07:52.567Z,56.54
2022-12-01T04:08:52.509Z,56.57
2022-12-01T04:09:52.511Z,56.83
2022-12-01T04:10:52.550Z,57.06
2022-12-01T04:11:52.512Z,57.06
2022-12-01T04:12:52.505Z,56.89
2022-12-01T04:13:52.534Z,56.89
2022-12-01T04:15:52.581Z,57.41
2022-12-01T04:16:52.579Z,57.33
2022-12-01T04:17:52.554Z,57.17
2022-12-01T04:18:52.555Z,57.34
2022-12-01T04:19:52.502Z,57.43
2022-12-01T04:20:52.498Z,57.45
2022-12-01T04:21:52.563Z,57.27
2022-12-01T04:22:52.566Z,57.27
2022-12-01T04:23:52.516Z,57.09
2022-12-01T04:24:52.554Z,57.04
2022-12-01T04:25:52.577Z,56.78
2022-12-01T04:26:52.586Z,56.40
2022-12-01T04:27:52.555Z,56.24
2022-12-01T04:28:52.543Z,56.66
2022-12-01T04:29:52.568Z,56.66
2022-12-01T04:30:52.594Z,56.58
2022-12-01T04:31:52.651Z,56.84
2022-12-01T04:32:52.543Z,56.84
2022-12-01T04:33:52.586Z,56.99
2022-12-01T04:34:52.577Z,56.62
2022-12-01T04:36:52.578Z,56.61
2022-12-01T04:37:52.600Z,56.76
2022-12-01T04:38:52.583Z,56.70
2022-12-01T04:39:52.792Z,56.68
2022-12-01T04:40:52.592Z,56.74
2022-12-01T04:41:52.591Z,56.55
2022-12-01T04:42:52.602Z,56.33
2022-12-01T04:43:52.588Z,56.21
2022-12-01T04:44:52.651Z,55.98
2022-12-01T04:45:52.614Z,55.98
2022-12-01T04:46:52.745Z,56.04
2022-12-01T04:47:52.588Z,56.03
2022-12-01T04:48:52.574Z,56.27
2022-12-01T04:49:52.604Z,56.30
2022-12-01T04:50:52.622Z,56.33
2022-12-01T04:51:52.619Z,56.35
2022-12-01T04:52:52.627Z,56.41
2022-12-01T04:53:52.612Z,56.35
2022-12-01T04:55:52.653Z,56.12
2022-12-01T04:56:52.620Z,56.17
2022-12-01T04:57:52.604Z,56.33
2022-12-01T04:58:52.593Z,56.69
2022-12-01T04:59:52.687Z,56.69
2022-12-01T05:00:52.637Z,56.61
2022-12-01T05:01:52.756Z,56.59
2022-12-01T05:02:52.614Z,56.59
2022-12-01T05:03:52.606Z,56.80
2022-12-01T05:04:52.677Z,56.74
2022-12-01T05:05:52.650Z,56.77
2022-12-01T05:06:52.661Z,56.51
2022-12-01T05:07:52.745Z,56.40
2022-12-01T05:08:52.625Z,56.32
2022-12-01T05:09:52.668Z,56.28
2022-12-01T05:10:52.645Z,56.18
2022-12-01T05:11:52.672Z,56.77
2022-12-01T05:12:52.670Z,57.23
2022-12-01T05:13:52.808Z,57.46
2022-12-01T05:14:52.699Z,57.90
2022-12-01T05:15:52.675Z,57.87
2022-12-01T05:18:52.731Z,57.78
2022-12-01T05:19:52.739Z,57.78
2022-12-01T05:20:52.696Z,57.74
2022-12-01T05:21:52.660Z,57.71
2022-12-01T05:23:05.438Z,57.14
2022-12-01T05:23:52.694Z,57.14
2022-12-01T05:24:52.739Z,56.86
2022-12-01T05:25:52.699Z,56.86
2022-12-01T05:26:52.701Z,56.62
2022-12-01T05:27:52.710Z,56.44
2022-12-01T05:30:52.797Z,56.39
2022-12-01T05:31:52.732Z,56.36
2022-12-01T05:32:52.721Z,56.31
2022-12-01T05:33:52.718Z,56.31
2022-12-01T05:34:52.715Z,56.29
2022-12-01T05:35:52.712Z,56.29
2022-12-01T05:36:52.726Z,56.39
2022-12-01T05:37:52.768Z,56.26
2022-12-01T05:38:52.684Z,56.37
2022-12-01T05:39:52.743Z,56.55
2022-12-01T05:40:52.720Z,56.55
2022-12-01T05:41:52.709Z,56.41
2022-12-01T05:42:52.729Z,56.50
2022-12-01T05:43:52.697Z,55.94
2022-12-01T05:44:52.736Z,55.98
2022-12-01T05:45:52.765Z,55.84
2022-12-01T05:46:52.728Z,55.89
2022-12-01T05:47:52.743Z,55.97
2022-12-01T05:48:52.747Z,55.89
2022-12-01T05:49:52.752Z,56.19
2022-12-01T05:50:52.724Z,56.36
2022-12-01T05:51:52.721Z,56.32
2022-12-01T05:52:52.774Z,56.22
2022-12-01T05:53:52.738Z,56.08
2022-12-01T05:54:52.771Z,55.89
2022-12-01T05:56:52.751Z,55.78
2022-12-01T05:57:52.808Z,55.75
2022-12-01T06:00:52.789Z,55.74
2022-12-01T06:01:52.811Z,55.73
2022-12-01T06:03:52.924Z,55.38
2022-12-01T06:04:52.803Z,55.34
2022-12-01T06:05:52.797Z,55.58
2022-12-01T06:06:52.772Z,55.58
2022-12-01T06:07:52.952Z,55.63
2022-12-01T06:08:52.767Z,55.55
2022-12-01T06:09:52.784Z,55.70
2022-12-01T06:10:52.842Z,55.43
2022-12-01T06:11:52.859Z,55.35
2022-12-01T06:12:52.848Z,55.36
2022-12-01T06:14:52.782Z,55.24
2022-12-01T06:16:52.819Z,55.37
2022-12-01T06:18:52.785Z,55.27
2022-12-01T06:19:52.796Z,55.34
2022-12-01T06:20:52.834Z,55.31
2022-12-01T06:21:52.853Z,55.04
2022-12-01T06:22:52.846Z,55.11
2022-12-01T06:23:52.841Z,55.11
2022-12-01T06:25:52.795Z,55.97
2022-12-01T06:26:52.950Z,55.96
2022-12-01T06:27:52.890Z,55.75
2022-12-01T06:29:53.235Z,55.88
2022-12-01T06:30:56.536Z,55.99
2022-12-01T06:31:52.895Z,55.99
2022-12-01T06:32:52.867Z,55.62
2022-12-01T06:33:52.871Z,55.62
2022-12-01T06:34:53.077Z,55.66
2022-12-01T06:35:52.860Z,55.51
2022-12-01T06:36:52.867Z,55.32
2022-12-01T06:37:52.915Z,55.53
2022-12-01T06:38:52.838Z,55.53
2022-12-01T06:39:53.148Z,55.44
2022-12-01T06:41:52.850Z,55.48
2022-12-01T06:42:52.907Z,55.24
2022-12-01T06:43:52.900Z,55.24
2022-12-01T06:44:53.080Z,55.24
2022-12-01T06:45:57.808Z,55.13
2022-12-01T06:46:53.121Z,55.04
2022-12-01T06:47:52.916Z,54.79
2022-12-01T06:48:52.927Z,54.79
2022-12-01T06:49:53.029Z,54.73
2022-12-01T06:51:52.874Z,54.65
2022-12-01T06:53:52.933Z,54.76
2022-12-01T06:54:52.897Z,54.76
2022-12-01T06:55:52.898Z,55.02
2022-12-01T06:56:52.892Z,54.78
2022-12-01T06:57:52.938Z,54.78
2022-12-01T06:58:52.964Z,55.33
2022-12-01T06:59:53.185Z,55.50
2022-12-01T07:00:53.131Z,55.42
2022-12-01T07:01:53.021Z,55.47
2022-12-01T07:02:52.972Z,55.09
2022-12-01T07:03:52.969Z,55.41
2022-12-01T07:04:52.948Z,55.41
2022-12-01T07:06:52.974Z,55.56
2022-12-01T07:07:59.142Z,55.56
2022-12-01T07:08:52.961Z,55.37
2022-12-01T07:11:52.953Z,55.28
2022-12-01T07:12:52.954Z,55.43
2022-12-01T07:13:52.966Z,55.57
2022-12-01T07:14:52.989Z,55.44
2022-12-01T07:15:52.933Z,55.44
2022-12-01T07:16:53.074Z,55.62
2022-12-01T07:17:52.936Z,56.00
2022-12-01T07:18:52.967Z,56.00
2022-12-01T07:19:52.977Z,56.28
2022-12-01T07:20:52.965Z,56.28
2022-12-01T07:21:52.982Z,55.96
2022-12-01T07:22:52.947Z,56.16
2022-12-01T07:23:53.018Z,55.92
2022-12-01T07:24:52.982Z,55.81
2022-12-01T07:25:52.944Z,55.81
2022-12-01T07:26:52.950Z,55.81
2022-12-01T07:27:53.001Z,55.52
2022-12-01T07:28:52.999Z,55.52
2022-12-01T07:29:53.039Z,55.39
2022-12-01T07:30:53.014Z,55.35
2022-12-01T07:31:53.014Z,55.39
2022-12-01T07:32:53.045Z,55.54
2022-12-01T07:33:53.020Z,55.45
2022-12-01T07:34:53.014Z,55.39
2022-12-01T07:35:53.031Z,55.39
2022-12-01T07:36:52.984Z,55.32
2022-12-01T07:37:53.010Z,55.44
2022-12-01T07:38:53.018Z,55.44
2022-12-01T07:39:53.028Z,55.12
2022-12-01T07:40:53.008Z,55.41
2022-12-01T07:41:52.994Z,55.41
2022-12-01T07:42:53.044Z,55.49
2022-12-01T07:43:53.028Z,55.49
2022-12-01T07:44:53.073Z,55.35
2022-12-01T07:45:53.083Z,55.35
2022-12-01T07:46:53.010Z,56.39
2022-12-01T07:47:53.093Z,56.51
2022-12-01T07:48:53.029Z,56.52
2022-12-01T07:49:53.040Z,56.29
2022-12-01T07:50:53.027Z,56.21
2022-12-01T07:51:53.059Z,56.21
2022-12-01T07:52:53.112Z,56.23
2022-12-01T07:53:53.021Z,56.23
2022-12-01T07:54:53.077Z,55.80
2022-12-01T07:55:53.079Z,55.85
2022-12-01T07:56:53.028Z,55.93
2022-12-01T07:57:53.079Z,56.03
2022-12-01T07:58:53.088Z,56.05
2022-12-01T07:59:53.046Z,55.88
2022-12-01T08:00:53.078Z,55.88
2022-12-01T08:01:53.134Z,55.89
2022-12-01T08:02:53.162Z,56.16
2022-12-01T08:03:53.092Z,56.16
2022-12-01T08:04:53.133Z,56.11
2022-12-01T08:05:53.097Z,56.11
2022-12-01T08:06:53.055Z,56.09
2022-12-01T08:07:53.181Z,56.28
2022-12-01T08:08:53.113Z,56.28
2022-12-01T08:09:53.118Z,55.99
2022-12-01T08:10:53.080Z,55.96
2022-12-01T08:11:53.088Z,55.96
2022-12-01T08:12:53.158Z,55.58
2022-12-01T08:13:53.130Z,55.49
2022-12-01T08:14:53.155Z,55.43
2022-12-01T08:15:53.136Z,55.43
2022-12-01T08:16:53.123Z,55.34
2022-12-01T08:17:53.125Z,55.33
2022-12-01T08:18:53.130Z,55.33
2022-12-01T08:19:53.191Z,55.27
2022-12-01T08:20:53.141Z,55.16
2022-12-01T08:21:53.131Z,55.16
2022-12-01T08:22:53.140Z,55.04
2022-12-01T08:24:53.128Z,54.83
2022-12-01T08:25:53.170Z,55.05
2022-12-01T08:26:53.152Z,54.88
2022-12-01T08:27:53.113Z,55.30
2022-12-01T08:28:53.163Z,55.31
2022-12-01T08:29:53.192Z,55.40
2022-12-01T08:30:53.296Z,55.26
2022-12-01T08:31:53.157Z,55.26
2022-12-01T08:32:53.154Z,55.25
2022-12-01T08:33:53.190Z,55.14
2022-12-01T08:35:53.181Z,55.26
2022-12-01T08:36:53.179Z,55.33
2022-12-01T08:37:53.156Z,55.21
2022-12-01T08:38:53.141Z,55.13
2022-12-01T08:40:53.215Z,55.03
2022-12-01T08:41:53.180Z,55.21
2022-12-01T08:42:53.217Z,55.33
2022-12-01T08:45:53.245Z,55.48
2022-12-01T08:47:53.223Z,55.67
2022-12-01T08:48:53.198Z,55.47
2022-12-01T08:49:53.197Z,55.49
2022-12-01T08:50:53.229Z,55.47
2022-12-01T08:51:53.184Z,55.47
2022-12-01T08:52:53.270Z,56.11
2022-12-01T08:53:53.206Z,56.11
2022-12-01T08:54:53.213Z,56.01
2022-12-01T08:55:53.219Z,56.19
2022-12-01T08:56:53.211Z,56.27
2022-12-01T08:58:53.212Z,56.32
2022-12-01T08:59:53.192Z,56.32
2022-12-01T09:00:53.200Z,56.91
2022-12-01T09:01:53.303Z,56.90
2022-12-01T09:02:53.393Z,57.28
2022-12-01T09:03:53.255Z,57.45
2022-12-01T09:04:53.239Z,57.52
2022-12-01T09:05:53.264Z,57.57
2022-12-01T09:06:53.196Z,57.36
2022-12-01T09:07:53.252Z,57.36
2022-12-01T09:08:53.308Z,56.84
2022-12-01T09:09:53.250Z,56.84
2022-12-01T09:10:53.209Z,56.53
2022-12-01T09:11:53.235Z,56.45
2022-12-01T09:12:53.248Z,56.30
2022-12-01T09:13:54.738Z,55.88
2022-12-01T09:14:53.225Z,56.00
2022-12-01T09:15:53.281Z,56.00
2022-12-01T09:16:53.250Z,55.85
2022-12-01T09:17:53.211Z,55.85
2022-12-01T09:18:53.312Z,56.31
2022-12-01T09:19:53.289Z,56.38
2022-12-01T09:20:53.272Z,56.38
2022-12-01T09:21:53.283Z,56.25
2022-12-01T09:22:53.273Z,56.28
2022-12-01T09:24:53.252Z,56.02
2022-12-01T09:26:53.298Z,55.88
2022-12-01T09:27:53.295Z,55.88
2022-12-01T09:28:53.285Z,56.60
2022-12-01T09:29:53.282Z,56.60
2022-12-01T09:30:53.251Z,56.96
2022-12-01T09:32:53.313Z,56.83
2022-12-01T09:33:53.340Z,57.02
2022-12-01T09:34:53.318Z,57.03
2022-12-01T09:35:53.305Z,57.03
2022-12-01T09:36:53.297Z,56.92
2022-12-01T09:37:53.284Z,57.12
2022-12-01T09:38:53.328Z,57.40
2022-12-01T09:39:53.315Z,57.56
2022-12-01T09:40:53.330Z,57.49
2022-12-01T09:41:53.316Z,57.59
2022-12-01T09:42:53.278Z,57.59
2022-12-01T09:43:53.439Z,57.27
2022-12-01T09:44:53.279Z,57.27
2022-12-01T09:45:53.332Z,57.11
2022-12-01T09:46:53.420Z,56.94
2022-12-01T09:47:53.331Z,56.94
2022-12-01T09:48:53.369Z,56.59
2022-12-01T09:49:53.334Z,56.51
2022-12-01T09:50:53.354Z,56.51
2022-12-01T09:51:53.388Z,56.58
2022-12-01T09:52:53.314Z,56.52
2022-12-01T09:53:53.347Z,56.52
2022-12-01T09:54:53.349Z,56.26
2022-12-01T09:55:53.370Z,56.32
2022-12-01T09:56:53.375Z,56.07
2022-12-01T09:57:53.309Z,56.07
2022-12-01T09:59:53.349Z,56.41
2022-12-01T10:00:53.449Z,56.23
2022-12-01T10:01:53.438Z,56.25
2022-12-01T10:02:53.333Z,56.25
2022-12-01T10:03:53.377Z,56.01
2022-12-01T10:04:53.461Z,55.90
2022-12-01T10:06:24.950Z,55.86
2022-12-01T10:06:53.376Z,55.75
2022-12-01T10:07:53.419Z,55.75
2022-12-01T10:08:53.375Z,56.27
2022-12-01T10:09:53.400Z,56.55
2022-12-01T10:10:53.347Z,56.55
2022-12-01T10:11:53.403Z,56.26
2022-12-01T10:12:53.355Z,56.26
2022-12-01T10:13:53.363Z,56.14
2022-12-01T10:14:53.424Z,56.13
2022-12-01T10:15:53.448Z,56.13
2022-12-01T10:17:53.381Z,55.78
2022-12-01T10:18:53.382Z,55.88
2022-12-01T10:20:53.413Z,55.89
2022-12-01T10:21:53.434Z,56.16
2022-12-01T10:22:53.412Z,56.16
2022-12-01T10:23:53.405Z,56.60
2022-12-01T10:24:53.423Z,56.48
2022-12-01T10:25:53.392Z,56.48
2022-12-01T10:26:53.463Z,56.52
2022-12-01T10:27:53.433Z,56.70
2022-12-01T10:28:53.407Z,56.63
2022-12-01T10:29:53.877Z,56.56
2022-12-01T10:30:53.462Z,56.48
2022-12-01T10:31:53.509Z,56.43
2022-12-01T10:32:53.526Z,56.46
2022-12-01T10:33:53.428Z,56.27
2022-12-01T10:34:54.185Z,56.16
2022-12-01T10:35:53.432Z,56.16
2022-12-01T10:36:53.444Z,56.01
2022-12-01T10:37:53.456Z,56.17
2022-12-01T10:38:53.444Z,56.17
2022-12-01T10:39:53.459Z,56.25
2022-12-01T10:40:53.477Z,56.25
2022-12-01T10:41:53.437Z,56.13
2022-12-01T10:42:53.469Z,56.20
2022-12-01T10:43:53.438Z,56.20
2022-12-01T10:44:53.508Z,56.49
2022-12-01T10:45:53.630Z,56.45
2022-12-01T10:46:53.450Z,56.34
2022-12-01T10:47:57.570Z,56.11
2022-12-01T10:48:53.433Z,56.11
2022-12-01T10:49:53.741Z,56.22
2022-12-01T10:50:53.472Z,56.22
2022-12-01T10:51:53.454Z,56.10
2022-12-01T10:52:53.499Z,55.84
2022-12-01T10:53:53.446Z,55.84
2022-12-01T10:54:53.525Z,56.18
2022-12-01T10:55:53.459Z,56.18
2022-12-01T10:56:53.473Z,56.25
2022-12-01T10:57:53.507Z,55.94
2022-12-01T10:58:53.524Z,55.96
2022-12-01T10:59:53.522Z,56.24
2022-12-01T11:01:00.596Z,56.24
2022-12-01T11:01:53.793Z,56.50
2022-12-01T11:02:53.806Z,56.21
2022-12-01T11:03:53.540Z,56.21
2022-12-01T11:04:53.539Z,56.12
2022-12-01T11:05:53.526Z,56.12
2022-12-01T11:06:54.762Z,56.26
2022-12-01T11:07:53.631Z,56.27
2022-12-01T11:08:53.547Z,56.25
2022-12-01T11:09:53.521Z,56.26
2022-12-01T11:10:53.531Z,56.26
2022-12-01T11:11:53.491Z,56.60
2022-12-01T11:12:53.581Z,57.06
2022-12-01T11:13:53.553Z,56.96
2022-12-01T11:14:53.502Z,56.96
2022-12-01T11:15:53.521Z,56.79
2022-12-01T11:16:53.580Z,56.79
2022-12-01T11:17:53.538Z,56.42
2022-12-01T11:18:53.625Z,56.42
2022-12-01T11:19:53.737Z,56.31
2022-12-01T11:20:53.555Z,56.22
2022-12-01T11:21:53.564Z,56.22
2022-12-01T11:22:53.615Z,55.94
2022-12-01T11:23:53.522Z,55.94
2022-12-01T11:24:53.544Z,55.72
2022-12-01T11:25:53.588Z,55.64
2022-12-01T11:26:53.610Z,55.56
2022-12-01T11:27:53.609Z,55.58
2022-12-01T11:28:53.539Z,55.58
2022-12-01T11:29:53.535Z,55.35
2022-12-01T11:30:56.598Z,55.48
2022-12-01T11:31:53.623Z,55.48
2022-12-01T11:34:53.587Z,55.87
2022-12-01T11:35:53.624Z,55.80
2022-12-01T11:38:13.137Z,55.76
2022-12-01T11:38:53.552Z,55.76
2022-12-01T11:39:53.635Z,55.58
2022-12-01T11:40:53.602Z,55.57
2022-12-01T11:41:53.607Z,55.57
2022-12-01T11:42:53.640Z,55.28
2022-12-01T11:44:01.482Z,55.22
2022-12-01T11:44:53.619Z,55.22
2022-12-01T11:47:07.720Z,55.53
2022-12-01T11:47:53.646Z,55.52
2022-12-01T11:49:53.920Z,55.25
2022-12-01T11:50:53.663Z,55.38
2022-12-01T11:51:53.628Z,55.51
2022-12-01T11:52:53.673Z,55.73
2022-12-01T11:53:53.647Z,55.79
2022-12-01T11:54:53.647Z,55.79
2022-12-01T11:57:17.793Z,55.71
2022-12-01T11:57:53.676Z,55.39
2022-12-01T11:58:53.689Z,55.66
2022-12-01T12:00:53.690Z,55.62
2022-12-01T12:01:53.681Z,55.62
2022-12-01T12:02:53.701Z,55.65
2022-12-01T12:03:53.755Z,55.70
2022-12-01T12:04:53.659Z,55.70
2022-12-01T12:05:57.590Z,55.58
2022-12-01T12:06:53.609Z,55.58
2022-12-01T12:07:53.761Z,55.56
2022-12-01T12:08:53.740Z,55.58
2022-12-01T12:09:53.653Z,55.52
2022-12-01T12:10:53.770Z,55.47
2022-12-01T12:11:53.677Z,55.47
2022-12-01T12:12:53.692Z,55.90
2022-12-01T12:13:53.669Z,55.90
2022-12-01T12:14:53.676Z,55.87
2022-12-01T12:15:53.739Z,56.00
2022-12-01T12:18:53.717Z,56.05
2022-12-01T12:20:08.073Z,56.05
2022-12-01T12:20:53.758Z,56.04
2022-12-01T12:21:53.706Z,56.04
2022-12-01T12:22:55.615Z,55.97
2022-12-01T12:23:53.669Z,55.81
2022-12-01T12:24:53.719Z,55.94
2022-12-01T12:25:53.745Z,56.02
2022-12-01T12:26:53.716Z,56.02
2022-12-01T12:28:53.719Z,56.14
2022-12-01T12:29:53.708Z,55.93
2022-12-01T12:31:53.698Z,55.77
2022-12-01T12:32:53.778Z,55.99
2022-12-01T12:33:53.723Z,55.99
2022-12-01T12:34:53.755Z,55.97
2022-12-01T12:35:53.741Z,55.89
2022-12-01T12:36:53.701Z,55.89
2022-12-01T12:37:53.739Z,55.98
2022-12-01T12:38:53.745Z,56.34
2022-12-01T12:39:53.744Z,56.61
2022-12-01T12:40:53.786Z,56.58
2022-12-01T12:41:53.751Z,56.69
2022-12-01T12:42:53.790Z,57.06
2022-12-01T12:43:53.721Z,57.25
2022-12-01T12:44:53.769Z,57.27
2022-12-01T12:45:53.880Z,56.97
2022-12-01T12:46:53.772Z,56.97
2022-12-01T12:47:53.790Z,56.74
2022-12-01T12:49:18.572Z,56.68
2022-12-01T12:49:53.771Z,56.98
2022-12-01T12:50:53.796Z,56.95
2022-12-01T12:51:53.778Z,56.95
2022-12-01T12:52:53.734Z,56.86
2022-12-01T12:53:53.774Z,56.64
2022-12-01T12:54:53.738Z,56.42
2022-12-01T12:55:53.768Z,56.28
2022-12-01T12:56:53.746Z,56.41
2022-12-01T12:57:53.746Z,56.48
2022-12-01T12:58:53.776Z,57.05
2022-12-01T12:59:53.763Z,57.05
2022-12-01T13:00:53.871Z,56.92
2022-12-01T13:01:53.825Z,56.92
2022-12-01T13:02:53.822Z,56.40
2022-12-01T13:03:53.823Z,56.10
2022-12-01T13:04:53.777Z,56.10
2022-12-01T13:05:53.767Z,56.33
2022-12-01T13:06:53.762Z,56.59
2022-12-01T13:07:53.866Z,56.49
2022-12-01T13:08:53.804Z,56.46
2022-12-01T13:09:53.803Z,56.47
2022-12-01T13:10:53.818Z,56.52
2022-12-01T13:11:53.816Z,56.30
2022-12-01T13:12:53.824Z,56.34
2022-12-01T13:13:53.832Z,56.27
2022-12-01T13:14:58.001Z,56.27
2022-12-01T13:17:53.826Z,56.20
2022-12-01T13:18:53.833Z,56.05
2022-12-01T13:19:53.837Z,56.05
2022-12-01T13:20:53.826Z,56.03
2022-12-01T13:21:53.913Z,56.36
2022-12-01T13:22:53.834Z,56.66
2022-12-01T13:23:53.823Z,56.83
2022-12-01T13:24:53.849Z,57.28
2022-12-01T13:25:53.816Z,57.85
2022-12-01T13:26:53.851Z,57.93
2022-12-01T13:27:53.856Z,57.93
2022-12-01T13:28:53.863Z,57.95
2022-12-01T13:29:53.924Z,58.15
2022-12-01T13:30:53.895Z,58.15
2022-12-01T13:31:53.866Z,58.25
2022-12-01T13:32:53.872Z,58.25
2022-12-01T13:33:53.846Z,58.05
2022-12-01T13:34:53.869Z,57.85
2022-12-01T13:36:22.561Z,57.63
2022-12-01T13:36:53.893Z,57.27
2022-12-01T13:37:53.880Z,57.27
2022-12-01T13:39:53.931Z,57.04
2022-12-01T13:40:53.892Z,57.04
2022-12-01T13:41:53.900Z,57.42
2022-12-01T13:42:53.886Z,57.29
2022-12-01T13:44:53.940Z,56.88
2022-12-01T13:45:53.866Z,57.04
2022-12-01T13:46:53.985Z,57.02
2022-12-01T13:47:53.933Z,57.00
2022-12-01T13:49:53.904Z,57.57
2022-12-01T13:50:53.901Z,57.57
2022-12-01T13:51:53.925Z,57.29
2022-12-01T13:52:53.861Z,57.29
2022-12-01T13:53:53.894Z,57.27
2022-12-01T13:54:53.911Z,57.20
2022-12-01T13:55:53.910Z,57.20
2022-12-01T13:56:53.911Z,57.18
2022-12-01T13:57:53.925Z,57.20
2022-12-01T13:58:53.933Z,57.17
2022-12-01T13:59:53.989Z,57.17
2022-12-01T14:00:54.019Z,57.05
2022-12-01T14:01:53.964Z,56.85
2022-12-01T14:03:53.961Z,56.60
2022-12-01T14:04:53.973Z,56.60
2022-12-01T14:06:54.003Z,56.61
2022-12-01T14:07:53.980Z,56.50
2022-12-01T14:08:53.967Z,56.71
2022-12-01T14:09:53.948Z,56.73
2022-12-01T14:10:53.939Z,56.68
2022-12-01T14:11:53.949Z,56.28